Falmouth, Kentucky
Current Conditions -  °F | °C
As of 8:53 PM on Saturday 22 Nov 2014 (Local Time) from KLUK Reporting Station
Few Clouds Few Clouds  
Wind Chill: 47°   Ceiling: Unl
Heat Index: 47°   Visibility: 10mi
Dew Point: 36°   Wind: 3mph
Humidity: 66%   Direction: 230°SW
Pressure: 30.1"   Gusts: NA
Location:  38.68°N, 84.33°W
Report Text: KLUK 230153Z 23003KT 10SM FEW095 08/02 A3010 RMK AO2 SLP194 T00830022
Loading
Personal Weather Stations






























Interactive Weather Map New forecast layout! Learn more

10-Day Weather Forecast

Advertisements
Track Severe Weather on mobile